sensor_id;sensor_type;location;lat;lon;timestamp;P1;durP1;ratioP1;P2;durP2;ratioP2
12177;SDS011;6152;48.728;9.256;2022-11-20T00:01:09;4.93;;;3.53;;
12177;SDS011;6152;48.728;9.256;2022-11-20T00:03:42;5.90;;;3.67;;
12177;SDS011;6152;48.728;9.256;2022-11-20T00:06:13;4.43;;;3.30;;
12177;SDS011;6152;48.728;9.256;2022-11-20T00:08:41;5.10;;;3.22;;
12177;SDS011;6152;48.728;9.256;2022-11-20T00:11:09;3.35;;;2.63;;
12177;SDS011;6152;48.728;9.256;2022-11-20T00:13:37;3.85;;;3.15;;
12177;SDS011;6152;48.728;9.256;2022-11-20T00:16:04;4.18;;;2.95;;
12177;SDS011;6152;48.728;9.256;2022-11-20T00:18:32;3.78;;;3.00;;
12177;SDS011;6152;48.728;9.256;2022-11-20T00:21:03;4.78;;;3.13;;
12177;SDS011;6152;48.728;9.256;2022-11-20T00:23:30;3.95;;;3.33;;
12177;SDS011;6152;48.728;9.256;2022-11-20T00:26:00;3.92;;;3.03;;
12177;SDS011;6152;48.728;9.256;2022-11-20T00:28:37;6.30;;;3.83;;
12177;SDS011;6152;48.728;9.256;2022-11-20T00:31:04;4.38;;;3.00;;
12177;SDS011;6152;48.728;9.256;2022-11-20T00:33:32;3.70;;;2.88;;
12177;SDS011;6152;48.728;9.256;2022-11-20T00:35:59;3.03;;;2.72;;
12177;SDS011;6152;48.728;9.256;2022-11-20T00:38:26;4.88;;;3.28;;
12177;SDS011;6152;48.728;9.256;2022-11-20T00:40:59;4.20;;;2.97;;
12177;SDS011;6152;48.728;9.256;2022-11-20T00:43:26;3.70;;;3.08;;
12177;SDS011;6152;48.728;9.256;2022-11-20T00:45:59;5.65;;;2.88;;
12177;SDS011;6152;48.728;9.256;2022-11-20T00:48:27;2.95;;;2.55;;
12177;SDS011;6152;48.728;9.256;2022-11-20T00:50:53;2.97;;;2.65;;
12177;SDS011;6152;48.728;9.256;2022-11-20T00:53:20;3.35;;;2.78;;
12177;SDS011;6152;48.728;9.256;2022-11-20T00:55:56;3.30;;;2.70;;
12177;SDS011;6152;48.728;9.256;2022-11-20T00:58:34;3.58;;;3.10;;
12177;SDS011;6152;48.728;9.256;2022-11-20T01:03:36;4.18;;;2.70;;
12177;SDS011;6152;48.728;9.256;2022-11-20T01:06:05;3.10;;;2.47;;
12177;SDS011;6152;48.728;9.256;2022-11-20T01:08:35;4.10;;;2.67;;
12177;SDS011;6152;48.728;9.256;2022-11-20T01:11:03;3.58;;;2.70;;
12177;SDS011;6152;48.728;9.256;2022-11-20T01:13:35;4.88;;;3.03;;
12177;SDS011;6152;48.728;9.256;2022-11-20T01:16:09;4.80;;;3.50;;
12177;SDS011;6152;48.728;9.256;2022-11-20T01:18:40;4.88;;;2.78;;
12177;SDS011;6152;48.728;9.256;2022-11-20T01:21:12;3.20;;;2.53;;
12177;SDS011;6152;48.728;9.256;2022-11-20T01:23:43;3.42;;;2.80;;
12177;SDS011;6152;48.728;9.256;2022-11-20T01:26:11;3.17;;;2.58;;
12177;SDS011;6152;48.728;9.256;2022-11-20T01:28:40;2.90;;;2.35;;
12177;SDS011;6152;48.728;9.256;2022-11-20T01:31:16;7.20;;;2.70;;
12177;SDS011;6152;48.728;9.256;2022-11-20T01:33:44;3.60;;;2.53;;
12177;SDS011;6152;48.728;9.256;2022-11-20T01:36:12;2.88;;;2.15;;
12177;SDS011;6152;48.728;9.256;2022-11-20T01:38:39;2.40;;;2.20;;
12177;SDS011;6152;48.728;9.256;2022-11-20T01:41:07;3.45;;;2.40;;
12177;SDS011;6152;48.728;9.256;2022-11-20T01:43:33;4.18;;;2.22;;
12177;SDS011;6152;48.728;9.256;2022-11-20T01:48:30;2.95;;;2.03;;
12177;SDS011;6152;48.728;9.256;2022-11-20T01:51:03;3.67;;;1.90;;
12177;SDS011;6152;48.728;9.256;2022-11-20T01:53:32;2.80;;;2.22;;
12177;SDS011;6152;48.728;9.256;2022-11-20T01:56:01;2.45;;;1.98;;
12177;SDS011;6152;48.728;9.256;2022-11-20T01:58:33;2.47;;;2.03;;
12177;SDS011;6152;48.728;9.256;2022-11-20T02:01:04;2.60;;;2.35;;
12177;SDS011;6152;48.728;9.256;2022-11-20T02:03:30;2.25;;;1.90;;
12177;SDS011;6152;48.728;9.256;2022-11-20T02:06:00;3.15;;;2.13;;
12177;SDS011;6152;48.728;9.256;2022-11-20T02:08:30;2.50;;;1.85;;
12177;SDS011;6152;48.728;9.256;2022-11-20T02:10:58;3.13;;;2.58;;
12177;SDS011;6152;48.728;9.256;2022-11-20T02:13:24;2.55;;;1.70;;
12177;SDS011;6152;48.728;9.256;2022-11-20T02:16:13;2.17;;;1.75;;
12177;SDS011;6152;48.728;9.256;2022-11-20T02:18:48;2.13;;;1.88;;
12177;SDS011;6152;48.728;9.256;2022-11-20T02:24:09;2.53;;;2.17;;
12177;SDS011;6152;48.728;9.256;2022-11-20T02:29:13;3.83;;;2.13;;
12177;SDS011;6152;48.728;9.256;2022-11-20T02:31:43;2.53;;;2.08;;
12177;SDS011;6152;48.728;9.256;2022-11-20T02:34:11;2.78;;;2.15;;
12177;SDS011;6152;48.728;9.256;2022-11-20T02:36:38;4.03;;;2.60;;
12177;SDS011;6152;48.728;9.256;2022-11-20T02:39:05;2.78;;;2.50;;
12177;SDS011;6152;48.728;9.256;2022-11-20T02:41:33;2.67;;;2.20;;
12177;SDS011;6152;48.728;9.256;2022-11-20T02:44:01;2.90;;;2.55;;
12177;SDS011;6152;48.728;9.256;2022-11-20T02:46:28;4.55;;;2.55;;
12177;SDS011;6152;48.728;9.256;2022-11-20T02:48:54;3.45;;;2.70;;
12177;SDS011;6152;48.728;9.256;2022-11-20T02:51:21;3.83;;;2.13;;
12177;SDS011;6152;48.728;9.256;2022-11-20T02:53:47;3.75;;;2.47;;
12177;SDS011;6152;48.728;9.256;2022-11-20T02:56:13;3.53;;;2.33;;
12177;SDS011;6152;48.728;9.256;2022-11-20T02:58:40;3.78;;;2.72;;
12177;SDS011;6152;48.728;9.256;2022-11-20T03:01:06;4.38;;;2.90;;
12177;SDS011;6152;48.728;9.256;2022-11-20T03:03:32;3.92;;;3.10;;
12177;SDS011;6152;48.728;9.256;2022-11-20T03:05:59;3.30;;;2.63;;
12177;SDS011;6152;48.728;9.256;2022-11-20T03:08:25;3.42;;;2.75;;
12177;SDS011;6152;48.728;9.256;2022-11-20T03:10:51;3.72;;;2.65;;
12177;SDS011;6152;48.728;9.256;2022-11-20T03:13:17;3.97;;;2.95;;
12177;SDS011;6152;48.728;9.256;2022-11-20T03:15:43;5.43;;;3.10;;
12177;SDS011;6152;48.728;9.256;2022-11-20T03:18:09;4.53;;;3.30;;
12177;SDS011;6152;48.728;9.256;2022-11-20T03:20:36;5.45;;;3.47;;
12177;SDS011;6152;48.728;9.256;2022-11-20T03:23:02;5.53;;;3.15;;
12177;SDS011;6152;48.728;9.256;2022-11-20T03:25:28;7.35;;;4.68;;
12177;SDS011;6152;48.728;9.256;2022-11-20T03:27:54;6.65;;;4.45;;
12177;SDS011;6152;48.728;9.256;2022-11-20T03:30:20;6.68;;;3.60;;
12177;SDS011;6152;48.728;9.256;2022-11-20T03:32:46;7.80;;;4.40;;
12177;SDS011;6152;48.728;9.256;2022-11-20T03:35:13;8.05;;;3.70;;
12177;SDS011;6152;48.728;9.256;2022-11-20T03:37:39;10.05;;;4.40;;
12177;SDS011;6152;48.728;9.256;2022-11-20T03:40:05;9.82;;;4.43;;
12177;SDS011;6152;48.728;9.256;2022-11-20T03:42:32;3.63;;;2.78;;
12177;SDS011;6152;48.728;9.256;2022-11-20T03:45:12;4.72;;;2.92;;
12177;SDS011;6152;48.728;9.256;2022-11-20T03:47:40;3.15;;;2.35;;
12177;SDS011;6152;48.728;9.256;2022-11-20T03:50:06;5.03;;;2.75;;
12177;SDS011;6152;48.728;9.256;2022-11-20T03:52:33;4.93;;;2.92;;
12177;SDS011;6152;48.728;9.256;2022-11-20T03:54:59;3.08;;;2.78;;
12177;SDS011;6152;48.728;9.256;2022-11-20T03:57:25;5.70;;;3.00;;
12177;SDS011;6152;48.728;9.256;2022-11-20T03:59:51;3.53;;;2.83;;
12177;SDS011;6152;48.728;9.256;2022-11-20T04:02:18;4.07;;;2.58;;
12177;SDS011;6152;48.728;9.256;2022-11-20T04:04:44;5.30;;;2.53;;
12177;SDS011;6152;48.728;9.256;2022-11-20T04:07:10;2.80;;;2.50;;
12177;SDS011;6152;48.728;9.256;2022-11-20T04:09:36;3.15;;;2.78;;
12177;SDS011;6152;48.728;9.256;2022-11-20T04:12:02;4.80;;;2.70;;
12177;SDS011;6152;48.728;9.256;2022-11-20T04:14:28;4.13;;;2.70;;
12177;SDS011;6152;48.728;9.256;2022-11-20T04:16:55;3.33;;;2.53;;
12177;SDS011;6152;48.728;9.256;2022-11-20T04:19:21;3.75;;;2.40;;
12177;SDS011;6152;48.728;9.256;2022-11-20T04:21:47;5.22;;;2.60;;
12177;SDS011;6152;48.728;9.256;2022-11-20T04:24:13;3.83;;;2.83;;
12177;SDS011;6152;48.728;9.256;2022-11-20T04:26:39;3.42;;;2.60;;
12177;SDS011;6152;48.728;9.256;2022-11-20T04:29:05;3.47;;;2.33;;
12177;SDS011;6152;48.728;9.256;2022-11-20T04:31:32;3.45;;;2.45;;
12177;SDS011;6152;48.728;9.256;2022-11-20T04:33:59;2.85;;;2.20;;
12177;SDS011;6152;48.728;9.256;2022-11-20T04:36:27;2.47;;;2.20;;
12177;SDS011;6152;48.728;9.256;2022-11-20T04:38:54;3.10;;;2.80;;
12177;SDS011;6152;48.728;9.256;2022-11-20T04:41:23;3.38;;;2.55;;
12177;SDS011;6152;48.728;9.256;2022-11-20T04:43:51;3.28;;;2.53;;
12177;SDS011;6152;48.728;9.256;2022-11-20T04:46:23;2.90;;;2.22;;
12177;SDS011;6152;48.728;9.256;2022-11-20T04:48:51;2.78;;;2.22;;
12177;SDS011;6152;48.728;9.256;2022-11-20T04:51:18;2.72;;;2.28;;
12177;SDS011;6152;48.728;9.256;2022-11-20T04:53:44;2.75;;;2.20;;
12177;SDS011;6152;48.728;9.256;2022-11-20T04:56:11;3.47;;;2.30;;
12177;SDS011;6152;48.728;9.256;2022-11-20T04:58:38;4.53;;;2.70;;
12177;SDS011;6152;48.728;9.256;2022-11-20T05:01:11;4.35;;;2.10;;
12177;SDS011;6152;48.728;9.256;2022-11-20T05:03:42;4.45;;;2.50;;
12177;SDS011;6152;48.728;9.256;2022-11-20T05:06:10;5.47;;;2.30;;
12177;SDS011;6152;48.728;9.256;2022-11-20T05:08:38;2.40;;;2.05;;
12177;SDS011;6152;48.728;9.256;2022-11-20T05:11:06;2.95;;;2.42;;
12177;SDS011;6152;48.728;9.256;2022-11-20T05:13:35;2.97;;;2.13;;
12177;SDS011;6152;48.728;9.256;2022-11-20T05:16:06;3.38;;;2.75;;
12177;SDS011;6152;48.728;9.256;2022-11-20T05:18:40;3.17;;;2.30;;
12177;SDS011;6152;48.728;9.256;2022-11-20T05:21:07;2.42;;;2.22;;
12177;SDS011;6152;48.728;9.256;2022-11-20T05:23:34;2.15;;;1.95;;
12177;SDS011;6152;48.728;9.256;2022-11-20T05:26:00;5.50;;;2.35;;
12177;SDS011;6152;48.728;9.256;2022-11-20T05:28:28;3.15;;;2.30;;
12177;SDS011;6152;48.728;9.256;2022-11-20T05:30:55;3.33;;;2.15;;
12177;SDS011;6152;48.728;9.256;2022-11-20T05:33:28;3.80;;;2.42;;
12177;SDS011;6152;48.728;9.256;2022-11-20T05:35:57;2.25;;;1.90;;
12177;SDS011;6152;48.728;9.256;2022-11-20T05:38:24;2.65;;;2.28;;
12177;SDS011;6152;48.728;9.256;2022-11-20T05:40:50;2.53;;;2.00;;
12177;SDS011;6152;48.728;9.256;2022-11-20T05:43:16;2.63;;;2.10;;
12177;SDS011;6152;48.728;9.256;2022-11-20T05:45:42;3.42;;;2.47;;
12177;SDS011;6152;48.728;9.256;2022-11-20T05:48:16;2.25;;;2.05;;
12177;SDS011;6152;48.728;9.256;2022-11-20T05:50:42;2.63;;;1.98;;
12177;SDS011;6152;48.728;9.256;2022-11-20T05:53:08;2.00;;;1.67;;
12177;SDS011;6152;48.728;9.256;2022-11-20T05:55:34;1.92;;;1.70;;
12177;SDS011;6152;48.728;9.256;2022-11-20T05:58:00;2.85;;;1.70;;
12177;SDS011;6152;48.728;9.256;2022-11-20T06:00:26;3.33;;;1.83;;
12177;SDS011;6152;48.728;9.256;2022-11-20T06:02:52;1.75;;;1.63;;
12177;SDS011;6152;48.728;9.256;2022-11-20T06:05:18;2.00;;;1.25;;
12177;SDS011;6152;48.728;9.256;2022-11-20T06:07:45;2.72;;;1.65;;
12177;SDS011;6152;48.728;9.256;2022-11-20T06:10:11;2.03;;;1.65;;
12177;SDS011;6152;48.728;9.256;2022-11-20T06:12:37;2.38;;;1.27;;
12177;SDS011;6152;48.728;9.256;2022-11-20T06:15:03;2.22;;;1.63;;
12177;SDS011;6152;48.728;9.256;2022-11-20T06:17:30;2.10;;;1.45;;
12177;SDS011;6152;48.728;9.256;2022-11-20T06:19:56;1.90;;;1.75;;
12177;SDS011;6152;48.728;9.256;2022-11-20T06:22:22;2.00;;;1.65;;
12177;SDS011;6152;48.728;9.256;2022-11-20T06:24:48;2.60;;;1.60;;
12177;SDS011;6152;48.728;9.256;2022-11-20T06:27:15;2.20;;;1.60;;
12177;SDS011;6152;48.728;9.256;2022-11-20T06:29:41;3.17;;;1.70;;
12177;SDS011;6152;48.728;9.256;2022-11-20T06:32:07;4.10;;;1.65;;
12177;SDS011;6152;48.728;9.256;2022-11-20T06:34:34;2.33;;;1.65;;
12177;SDS011;6152;48.728;9.256;2022-11-20T06:37:00;2.50;;;1.73;;
12177;SDS011;6152;48.728;9.256;2022-11-20T06:39:26;2.40;;;1.60;;
12177;SDS011;6152;48.728;9.256;2022-11-20T06:41:52;2.45;;;1.90;;
12177;SDS011;6152;48.728;9.256;2022-11-20T06:44:18;3.05;;;1.95;;
12177;SDS011;6152;48.728;9.256;2022-11-20T06:46:44;2.03;;;1.73;;
12177;SDS011;6152;48.728;9.256;2022-11-20T06:49:10;1.80;;;1.70;;
12177;SDS011;6152;48.728;9.256;2022-11-20T06:51:36;6.20;;;2.30;;
12177;SDS011;6152;48.728;9.256;2022-11-20T06:54:02;2.80;;;2.10;;
12177;SDS011;6152;48.728;9.256;2022-11-20T06:56:28;1.60;;;1.50;;
12177;SDS011;6152;48.728;9.256;2022-11-20T06:58:55;3.15;;;1.73;;
12177;SDS011;6152;48.728;9.256;2022-11-20T07:01:21;2.13;;;1.85;;
12177;SDS011;6152;48.728;9.256;2022-11-20T07:03:48;2.00;;;1.65;;
12177;SDS011;6152;48.728;9.256;2022-11-20T07:06:15;2.40;;;1.88;;
12177;SDS011;6152;48.728;9.256;2022-11-20T07:08:42;2.90;;;1.88;;
12177;SDS011;6152;48.728;9.256;2022-11-20T07:11:08;1.83;;;1.65;;
12177;SDS011;6152;48.728;9.256;2022-11-20T07:13:36;2.83;;;1.67;;
12177;SDS011;6152;48.728;9.256;2022-11-20T07:16:03;1.77;;;1.55;;
12177;SDS011;6152;48.728;9.256;2022-11-20T07:18:32;2.75;;;1.67;;
12177;SDS011;6152;48.728;9.256;2022-11-20T07:21:05;2.97;;;1.70;;
12177;SDS011;6152;48.728;9.256;2022-11-20T07:23:33;3.00;;;1.92;;
12177;SDS011;6152;48.728;9.256;2022-11-20T07:26:06;5.18;;;1.92;;
12177;SDS011;6152;48.728;9.256;2022-11-20T07:28:35;3.83;;;2.15;;
12177;SDS011;6152;48.728;9.256;2022-11-20T07:31:02;3.40;;;2.05;;
12177;SDS011;6152;48.728;9.256;2022-11-20T07:33:29;1.98;;;1.75;;
12177;SDS011;6152;48.728;9.256;2022-11-20T07:35:57;2.78;;;1.90;;
12177;SDS011;6152;48.728;9.256;2022-11-20T07:38:25;2.05;;;1.80;;
12177;SDS011;6152;48.728;9.256;2022-11-20T07:40:54;1.73;;;1.60;;
12177;SDS011;6152;48.728;9.256;2022-11-20T07:43:22;2.88;;;1.67;;
12177;SDS011;6152;48.728;9.256;2022-11-20T07:45:49;2.13;;;1.92;;
12177;SDS011;6152;48.728;9.256;2022-11-20T07:48:15;2.00;;;1.75;;
12177;SDS011;6152;48.728;9.256;2022-11-20T07:50:41;2.75;;;1.77;;
12177;SDS011;6152;48.728;9.256;2022-11-20T07:53:07;2.05;;;1.60;;
12177;SDS011;6152;48.728;9.256;2022-11-20T07:55:33;2.90;;;1.75;;
12177;SDS011;6152;48.728;9.256;2022-11-20T07:57:59;3.40;;;1.83;;
12177;SDS011;6152;48.728;9.256;2022-11-20T08:00:26;1.65;;;1.45;;
12177;SDS011;6152;48.728;9.256;2022-11-20T08:02:52;4.55;;;1.70;;
12177;SDS011;6152;48.728;9.256;2022-11-20T08:05:18;1.58;;;1.48;;
12177;SDS011;6152;48.728;9.256;2022-11-20T08:07:44;1.50;;;1.40;;
12177;SDS011;6152;48.728;9.256;2022-11-20T08:10:12;1.70;;;1.60;;
12177;SDS011;6152;48.728;9.256;2022-11-20T08:12:43;1.75;;;1.52;;
12177;SDS011;6152;48.728;9.256;2022-11-20T08:15:29;1.50;;;1.40;;
12177;SDS011;6152;48.728;9.256;2022-11-20T08:18:00;3.15;;;1.50;;
12177;SDS011;6152;48.728;9.256;2022-11-20T08:20:27;1.10;;;1.00;;
12177;SDS011;6152;48.728;9.256;2022-11-20T08:22:57;2.10;;;1.30;;
12177;SDS011;6152;48.728;9.256;2022-11-20T08:25:25;1.60;;;1.17;;
12177;SDS011;6152;48.728;9.256;2022-11-20T08:27:51;2.45;;;1.98;;
12177;SDS011;6152;48.728;9.256;2022-11-20T08:30:18;1.23;;;1.13;;
12177;SDS011;6152;48.728;9.256;2022-11-20T08:32:44;1.92;;;1.48;;
12177;SDS011;6152;48.728;9.256;2022-11-20T08:35:10;2.00;;;1.45;;
12177;SDS011;6152;48.728;9.256;2022-11-20T08:37:36;1.60;;;1.50;;
12177;SDS011;6152;48.728;9.256;2022-11-20T08:40:06;2.15;;;1.95;;
12177;SDS011;6152;48.728;9.256;2022-11-20T08:42:35;3.35;;;1.70;;
12177;SDS011;6152;48.728;9.256;2022-11-20T08:45:01;1.52;;;1.25;;
12177;SDS011;6152;48.728;9.256;2022-11-20T08:47:27;2.25;;;1.15;;
12177;SDS011;6152;48.728;9.256;2022-11-20T08:49:54;2.05;;;1.40;;
12177;SDS011;6152;48.728;9.256;2022-11-20T08:52:20;1.55;;;1.20;;
12177;SDS011;6152;48.728;9.256;2022-11-20T08:54:46;1.55;;;1.38;;
12177;SDS011;6152;48.728;9.256;2022-11-20T08:57:12;1.50;;;1.27;;
12177;SDS011;6152;48.728;9.256;2022-11-20T08:59:38;1.90;;;1.20;;
12177;SDS011;6152;48.728;9.256;2022-11-20T09:02:04;1.35;;;1.25;;
12177;SDS011;6152;48.728;9.256;2022-11-20T09:04:30;2.00;;;1.30;;
12177;SDS011;6152;48.728;9.256;2022-11-20T09:06:56;1.67;;;1.23;;
12177;SDS011;6152;48.728;9.256;2022-11-20T09:09:24;1.67;;;1.50;;
12177;SDS011;6152;48.728;9.256;2022-11-20T09:11:50;1.30;;;1.20;;
12177;SDS011;6152;48.728;9.256;2022-11-20T09:14:16;1.52;;;1.42;;
12177;SDS011;6152;48.728;9.256;2022-11-20T09:16:44;1.45;;;1.20;;
12177;SDS011;6152;48.728;9.256;2022-11-20T09:19:11;1.20;;;1.10;;
12177;SDS011;6152;48.728;9.256;2022-11-20T09:21:37;1.38;;;0.70;;
12177;SDS011;6152;48.728;9.256;2022-11-20T09:24:04;1.10;;;0.60;;
12177;SDS011;6152;48.728;9.256;2022-11-20T09:26:30;0.65;;;0.65;;
12177;SDS011;6152;48.728;9.256;2022-11-20T09:28:56;0.70;;;0.70;;
12177;SDS011;6152;48.728;9.256;2022-11-20T09:31:23;3.65;;;1.65;;
12177;SDS011;6152;48.728;9.256;2022-11-20T09:33:50;1.33;;;1.00;;
12177;SDS011;6152;48.728;9.256;2022-11-20T09:36:17;1.50;;;0.95;;
12177;SDS011;6152;48.728;9.256;2022-11-20T09:38:46;1.02;;;0.70;;
12177;SDS011;6152;48.728;9.256;2022-11-20T09:42:01;2.42;;;1.10;;
12177;SDS011;6152;48.728;9.256;2022-11-20T09:50:23;1.35;;;0.90;;
12177;SDS011;6152;48.728;9.256;2022-11-20T09:52:58;1.30;;;0.77;;
12177;SDS011;6152;48.728;9.256;2022-11-20T09:55:30;0.70;;;0.55;;
12177;SDS011;6152;48.728;9.256;2022-11-20T09:57:59;0.20;;;0.20;;
12177;SDS011;6152;48.728;9.256;2022-11-20T10:00:25;0.30;;;0.30;;
12177;SDS011;6152;48.728;9.256;2022-11-20T10:06:11;0.20;;;0.20;;
12177;SDS011;6152;48.728;9.256;2022-11-20T10:08:44;0.60;;;0.30;;
12177;SDS011;6152;48.728;9.256;2022-11-20T10:28:16;0.20;;;0.20;;
12177;SDS011;6152;48.728;9.256;2022-11-20T10:30:56;0.80;;;0.50;;
12177;SDS011;6152;48.728;9.256;2022-11-20T10:33:36;0.50;;;0.20;;
12177;SDS011;6152;48.728;9.256;2022-11-20T10:36:17;0.40;;;0.40;;
12177;SDS011;6152;48.728;9.256;2022-11-20T10:41:27;0.30;;;0.30;;
12177;SDS011;6152;48.728;9.256;2022-11-20T10:46:37;0.40;;;0.40;;
12177;SDS011;6152;48.728;9.256;2022-11-20T10:49:12;1.25;;;0.50;;
12177;SDS011;6152;48.728;9.256;2022-11-20T10:54:39;0.38;;;0.38;;
12177;SDS011;6152;48.728;9.256;2022-11-20T10:57:18;0.73;;;0.38;;
12177;SDS011;6152;48.728;9.256;2022-11-20T11:00:10;0.40;;;0.40;;
12177;SDS011;6152;48.728;9.256;2022-11-20T11:02:39;0.68;;;0.43;;
12177;SDS011;6152;48.728;9.256;2022-11-20T11:05:17;1.58;;;0.50;;
12177;SDS011;6152;48.728;9.256;2022-11-20T11:07:51;0.40;;;0.40;;
12177;SDS011;6152;48.728;9.256;2022-11-20T11:13:29;1.33;;;0.73;;
12177;SDS011;6152;48.728;9.256;2022-11-20T11:15:56;0.30;;;0.30;;
12177;SDS011;6152;48.728;9.256;2022-11-20T11:18:30;0.57;;;0.32;;
12177;SDS011;6152;48.728;9.256;2022-11-20T11:21:01;1.80;;;0.55;;
12177;SDS011;6152;48.728;9.256;2022-11-20T11:23:42;0.73;;;0.30;;
12177;SDS011;6152;48.728;9.256;2022-11-20T11:26:21;0.55;;;0.52;;
12177;SDS011;6152;48.728;9.256;2022-11-20T11:29:01;1.20;;;0.60;;
12177;SDS011;6152;48.728;9.256;2022-11-20T11:31:29;0.60;;;0.60;;
12177;SDS011;6152;48.728;9.256;2022-11-20T11:34:07;0.43;;;0.43;;
12177;SDS011;6152;48.728;9.256;2022-11-20T11:36:37;0.40;;;0.40;;
12177;SDS011;6152;48.728;9.256;2022-11-20T11:39:04;0.73;;;0.57;;
12177;SDS011;6152;48.728;9.256;2022-11-20T11:41:35;1.10;;;0.55;;
12177;SDS011;6152;48.728;9.256;2022-11-20T11:44:21;1.02;;;0.43;;
12177;SDS011;6152;48.728;9.256;2022-11-20T11:47:53;1.80;;;0.50;;
12177;SDS011;6152;48.728;9.256;2022-11-20T11:52:41;2.42;;;0.50;;
12177;SDS011;6152;48.728;9.256;2022-11-20T11:55:37;1.42;;;0.50;;
12177;SDS011;6152;48.728;9.256;2022-11-20T11:58:41;0.75;;;0.63;;
12177;SDS011;6152;48.728;9.256;2022-11-20T12:01:29;0.45;;;0.40;;
12177;SDS011;6152;48.728;9.256;2022-11-20T12:04:16;2.58;;;0.52;;
12177;SDS011;6152;48.728;9.256;2022-11-20T12:07:29;1.40;;;0.47;;
12177;SDS011;6152;48.728;9.256;2022-11-20T12:10:03;0.57;;;0.57;;
12177;SDS011;6152;48.728;9.256;2022-11-20T12:12:32;1.20;;;0.50;;
12177;SDS011;6152;48.728;9.256;2022-11-20T12:15:04;0.63;;;0.55;;
12177;SDS011;6152;48.728;9.256;2022-11-20T12:17:35;0.57;;;0.40;;
12177;SDS011;6152;48.728;9.256;2022-11-20T12:20:02;1.15;;;0.52;;
12177;SDS011;6152;48.728;9.256;2022-11-20T12:25:20;0.40;;;0.40;;
12177;SDS011;6152;48.728;9.256;2022-11-20T12:30:40;1.05;;;0.30;;
12177;SDS011;6152;48.728;9.256;2022-11-20T12:44:38;1.10;;;0.52;;
12177;SDS011;6152;48.728;9.256;2022-11-20T12:53:04;1.15;;;0.30;;
12177;SDS011;6152;48.728;9.256;2022-11-20T13:01:47;0.57;;;0.30;;
12177;SDS011;6152;48.728;9.256;2022-11-20T13:07:12;0.45;;;0.40;;
12177;SDS011;6152;48.728;9.256;2022-11-20T13:09:46;1.02;;;0.40;;
12177;SDS011;6152;48.728;9.256;2022-11-20T13:12:20;0.80;;;0.63;;
12177;SDS011;6152;48.728;9.256;2022-11-20T13:15:32;0.98;;;0.63;;
12177;SDS011;6152;48.728;9.256;2022-11-20T13:18:04;0.98;;;0.50;;
12177;SDS011;6152;48.728;9.256;2022-11-20T13:20:35;1.30;;;0.40;;
12177;SDS011;6152;48.728;9.256;2022-11-20T13:23:06;2.40;;;0.40;;
12177;SDS011;6152;48.728;9.256;2022-11-20T13:25:33;0.80;;;0.30;;
12177;SDS011;6152;48.728;9.256;2022-11-20T13:28:43;1.00;;;0.20;;
12177;SDS011;6152;48.728;9.256;2022-11-20T13:30:52;0.30;;;0.30;;
12177;SDS011;6152;48.728;9.256;2022-11-20T13:33:25;0.22;;;0.22;;
12177;SDS011;6152;48.728;9.256;2022-11-20T13:38:23;0.85;;;0.10;;
12177;SDS011;6152;48.728;9.256;2022-11-20T13:40:54;1.42;;;0.63;;
12177;SDS011;6152;48.728;9.256;2022-11-20T13:43:33;1.13;;;0.32;;
12177;SDS011;6152;48.728;9.256;2022-11-20T13:46:04;3.88;;;0.30;;
12177;SDS011;6152;48.728;9.256;2022-11-20T13:48:32;2.72;;;0.20;;
12177;SDS011;6152;48.728;9.256;2022-11-20T13:59:30;0.50;;;0.30;;
12177;SDS011;6152;48.728;9.256;2022-11-20T14:02:14;1.60;;;0.40;;
12177;SDS011;6152;48.728;9.256;2022-11-20T14:04:45;1.17;;;0.40;;
12177;SDS011;6152;48.728;9.256;2022-11-20T14:07:13;2.95;;;0.30;;
12177;SDS011;6152;48.728;9.256;2022-11-20T14:09:48;0.30;;;0.20;;
12177;SDS011;6152;48.728;9.256;2022-11-20T14:12:18;0.85;;;0.30;;
12177;SDS011;6152;48.728;9.256;2022-11-20T14:14:47;0.43;;;0.30;;
12177;SDS011;6152;48.728;9.256;2022-11-20T14:17:22;0.30;;;0.30;;
12177;SDS011;6152;48.728;9.256;2022-11-20T14:19:54;0.77;;;0.28;;
12177;SDS011;6152;48.728;9.256;2022-11-20T14:22:25;1.08;;;0.30;;
12177;SDS011;6152;48.728;9.256;2022-11-20T14:25:02;1.48;;;0.50;;
12177;SDS011;6152;48.728;9.256;2022-11-20T14:27:42;0.40;;;0.40;;
12177;SDS011;6152;48.728;9.256;2022-11-20T14:30:18;2.92;;;0.30;;
12177;SDS011;6152;48.728;9.256;2022-11-20T14:32:49;0.95;;;0.52;;
12177;SDS011;6152;48.728;9.256;2022-11-20T14:35:28;2.95;;;0.60;;
12177;SDS011;6152;48.728;9.256;2022-11-20T14:37:56;1.08;;;0.50;;
12177;SDS011;6152;48.728;9.256;2022-11-20T14:40:27;2.08;;;0.40;;
12177;SDS011;6152;48.728;9.256;2022-11-20T14:43:00;1.63;;;0.40;;
12177;SDS011;6152;48.728;9.256;2022-11-20T14:45:27;0.60;;;0.40;;
12177;SDS011;6152;48.728;9.256;2022-11-20T14:47:55;0.75;;;0.50;;
12177;SDS011;6152;48.728;9.256;2022-11-20T14:52:56;0.57;;;0.35;;
12177;SDS011;6152;48.728;9.256;2022-11-20T14:55:25;0.65;;;0.50;;
12177;SDS011;6152;48.728;9.256;2022-11-20T14:58:25;0.63;;;0.43;;
12177;SDS011;6152;48.728;9.256;2022-11-20T15:00:57;2.40;;;0.50;;
12177;SDS011;6152;48.728;9.256;2022-11-20T15:03:33;1.27;;;0.30;;
12177;SDS011;6152;48.728;9.256;2022-11-20T15:06:01;1.13;;;0.50;;
12177;SDS011;6152;48.728;9.256;2022-11-20T15:08:28;1.67;;;0.50;;
12177;SDS011;6152;48.728;9.256;2022-11-20T15:10:54;1.70;;;0.57;;
12177;SDS011;6152;48.728;9.256;2022-11-20T15:15:58;0.95;;;0.30;;
12177;SDS011;6152;48.728;9.256;2022-11-20T15:18:36;0.43;;;0.43;;
12177;SDS011;6152;48.728;9.256;2022-11-20T15:21:09;0.50;;;0.40;;
12177;SDS011;6152;48.728;9.256;2022-11-20T15:23:37;0.88;;;0.50;;
12177;SDS011;6152;48.728;9.256;2022-11-20T15:26:04;0.55;;;0.40;;
12177;SDS011;6152;48.728;9.256;2022-11-20T15:31:12;0.98;;;0.52;;
12177;SDS011;6152;48.728;9.256;2022-11-20T15:33:41;0.43;;;0.40;;
12177;SDS011;6152;48.728;9.256;2022-11-20T15:36:07;1.27;;;0.60;;
12177;SDS011;6152;48.728;9.256;2022-11-20T15:38:35;0.68;;;0.68;;
12177;SDS011;6152;48.728;9.256;2022-11-20T15:41:01;0.50;;;0.50;;
12177;SDS011;6152;48.728;9.256;2022-11-20T15:43:28;0.47;;;0.47;;
12177;SDS011;6152;48.728;9.256;2022-11-20T15:45:55;1.10;;;0.65;;
12177;SDS011;6152;48.728;9.256;2022-11-20T15:48:29;1.00;;;0.70;;
12177;SDS011;6152;48.728;9.256;2022-11-20T15:53:41;1.17;;;0.90;;
12177;SDS011;6152;48.728;9.256;2022-11-20T15:56:11;1.90;;;0.75;;
12177;SDS011;6152;48.728;9.256;2022-11-20T15:58:38;2.13;;;0.80;;
12177;SDS011;6152;48.728;9.256;2022-11-20T16:01:05;1.35;;;1.15;;
12177;SDS011;6152;48.728;9.256;2022-11-20T16:03:39;0.98;;;0.68;;
12177;SDS011;6152;48.728;9.256;2022-11-20T16:06:05;1.77;;;0.60;;
12177;SDS011;6152;48.728;9.256;2022-11-20T16:08:32;1.00;;;0.90;;
12177;SDS011;6152;48.728;9.256;2022-11-20T16:10:58;1.48;;;0.80;;
12177;SDS011;6152;48.728;9.256;2022-11-20T16:13:24;0.98;;;0.90;;
12177;SDS011;6152;48.728;9.256;2022-11-20T16:16:22;0.57;;;0.57;;
12177;SDS011;6152;48.728;9.256;2022-11-20T16:18:53;1.02;;;1.00;;
12177;SDS011;6152;48.728;9.256;2022-11-20T16:21:20;1.45;;;1.10;;
12177;SDS011;6152;48.728;9.256;2022-11-20T16:23:52;1.88;;;1.00;;
12177;SDS011;6152;48.728;9.256;2022-11-20T16:26:18;1.25;;;0.85;;
12177;SDS011;6152;48.728;9.256;2022-11-20T16:28:45;0.77;;;0.73;;
12177;SDS011;6152;48.728;9.256;2022-11-20T16:31:13;0.80;;;0.80;;
12177;SDS011;6152;48.728;9.256;2022-11-20T16:33:40;0.77;;;0.77;;
12177;SDS011;6152;48.728;9.256;2022-11-20T16:36:13;3.17;;;1.00;;
12177;SDS011;6152;48.728;9.256;2022-11-20T16:38:40;0.85;;;0.68;;
12177;SDS011;6152;48.728;9.256;2022-11-20T16:41:07;2.27;;;0.90;;
12177;SDS011;6152;48.728;9.256;2022-11-20T16:43:49;1.53;;;0.90;;
12177;SDS011;6152;48.728;9.256;2022-11-20T16:46:18;2.77;;;0.80;;
12177;SDS011;6152;48.728;9.256;2022-11-20T16:48:58;1.03;;;0.67;;
12177;SDS011;6152;48.728;9.256;2022-11-20T16:51:25;1.70;;;1.10;;
12177;SDS011;6152;48.728;9.256;2022-11-20T16:53:54;1.00;;;0.90;;
12177;SDS011;6152;48.728;9.256;2022-11-20T16:56:24;1.33;;;1.00;;
12177;SDS011;6152;48.728;9.256;2022-11-20T16:58:52;0.90;;;0.90;;
12177;SDS011;6152;48.728;9.256;2022-11-20T17:01:20;1.20;;;1.10;;